sensor_id;sensor_type;location;lat;lon;timestamp;P1;durP1;ratioP1;P2;durP2;ratioP2
21657;SDS011;10990;48.174;9.782;2023-06-14T00:01:13;4.97;;;2.97;;
21657;SDS011;10990;48.174;9.782;2023-06-14T00:03:40;4.70;;;3.00;;
21657;SDS011;10990;48.174;9.782;2023-06-14T00:06:07;3.92;;;3.00;;
21657;SDS011;10990;48.174;9.782;2023-06-14T00:08:33;4.65;;;3.20;;
21657;SDS011;10990;48.174;9.782;2023-06-14T00:11:00;3.40;;;2.92;;
21657;SDS011;10990;48.174;9.782;2023-06-14T00:13:28;3.75;;;2.90;;
21657;SDS011;10990;48.174;9.782;2023-06-14T00:15:55;5.95;;;3.03;;
21657;SDS011;10990;48.174;9.782;2023-06-14T00:18:22;4.40;;;2.90;;
21657;SDS011;10990;48.174;9.782;2023-06-14T00:20:51;4.10;;;2.97;;
21657;SDS011;10990;48.174;9.782;2023-06-14T00:23:18;4.57;;;3.33;;
21657;SDS011;10990;48.174;9.782;2023-06-14T00:25:45;3.78;;;2.88;;
21657;SDS011;10990;48.174;9.782;2023-06-14T00:28:12;3.75;;;2.95;;
21657;SDS011;10990;48.174;9.782;2023-06-14T00:30:41;3.80;;;3.00;;
21657;SDS011;10990;48.174;9.782;2023-06-14T00:33:09;4.60;;;3.10;;
21657;SDS011;10990;48.174;9.782;2023-06-14T00:35:36;6.15;;;3.40;;
21657;SDS011;10990;48.174;9.782;2023-06-14T00:38:03;4.18;;;3.25;;
21657;SDS011;10990;48.174;9.782;2023-06-14T00:40:29;3.60;;;3.08;;
21657;SDS011;10990;48.174;9.782;2023-06-14T00:42:56;5.07;;;3.30;;
21657;SDS011;10990;48.174;9.782;2023-06-14T00:45:23;4.60;;;3.28;;
21657;SDS011;10990;48.174;9.782;2023-06-14T00:47:51;4.05;;;3.15;;
21657;SDS011;10990;48.174;9.782;2023-06-14T00:50:20;3.42;;;3.00;;
21657;SDS011;10990;48.174;9.782;2023-06-14T00:52:48;4.90;;;2.92;;
21657;SDS011;10990;48.174;9.782;2023-06-14T00:55:17;4.13;;;2.92;;
21657;SDS011;10990;48.174;9.782;2023-06-14T00:57:44;3.55;;;2.83;;
21657;SDS011;10990;48.174;9.782;2023-06-14T01:00:12;3.80;;;2.92;;
21657;SDS011;10990;48.174;9.782;2023-06-14T01:02:40;5.45;;;2.92;;
21657;SDS011;10990;48.174;9.782;2023-06-14T01:05:09;6.13;;;3.05;;
21657;SDS011;10990;48.174;9.782;2023-06-14T01:07:45;6.82;;;3.25;;
21657;SDS011;10990;48.174;9.782;2023-06-14T01:10:28;3.90;;;3.08;;
21657;SDS011;10990;48.174;9.782;2023-06-14T01:13:05;4.28;;;3.10;;
21657;SDS011;10990;48.174;9.782;2023-06-14T01:15:37;5.88;;;2.95;;
21657;SDS011;10990;48.174;9.782;2023-06-14T01:18:05;5.28;;;3.03;;
21657;SDS011;10990;48.174;9.782;2023-06-14T01:20:34;3.63;;;3.05;;
21657;SDS011;10990;48.174;9.782;2023-06-14T01:23:04;4.28;;;3.13;;
21657;SDS011;10990;48.174;9.782;2023-06-14T01:25:31;5.03;;;3.08;;
21657;SDS011;10990;48.174;9.782;2023-06-14T01:27:58;4.53;;;3.00;;
21657;SDS011;10990;48.174;9.782;2023-06-14T01:30:27;5.47;;;3.10;;
21657;SDS011;10990;48.174;9.782;2023-06-14T01:32:55;5.78;;;3.15;;
21657;SDS011;10990;48.174;9.782;2023-06-14T01:35:23;4.03;;;3.10;;
21657;SDS011;10990;48.174;9.782;2023-06-14T01:37:50;6.47;;;3.20;;
21657;SDS011;10990;48.174;9.782;2023-06-14T01:40:20;4.97;;;3.25;;
21657;SDS011;10990;48.174;9.782;2023-06-14T01:42:49;5.45;;;3.30;;
21657;SDS011;10990;48.174;9.782;2023-06-14T01:45:17;6.68;;;3.00;;
21657;SDS011;10990;48.174;9.782;2023-06-14T01:47:45;6.50;;;3.80;;
21657;SDS011;10990;48.174;9.782;2023-06-14T01:50:14;4.80;;;3.35;;
21657;SDS011;10990;48.174;9.782;2023-06-14T01:52:41;5.88;;;3.17;;
21657;SDS011;10990;48.174;9.782;2023-06-14T01:55:09;6.68;;;3.33;;
21657;SDS011;10990;48.174;9.782;2023-06-14T01:57:39;4.50;;;3.05;;
21657;SDS011;10990;48.174;9.782;2023-06-14T02:00:06;5.25;;;3.22;;
21657;SDS011;10990;48.174;9.782;2023-06-14T02:02:38;5.75;;;3.25;;
21657;SDS011;10990;48.174;9.782;2023-06-14T02:05:05;6.10;;;3.22;;
21657;SDS011;10990;48.174;9.782;2023-06-14T02:07:32;5.00;;;3.30;;
21657;SDS011;10990;48.174;9.782;2023-06-14T02:09:58;6.60;;;3.47;;
21657;SDS011;10990;48.174;9.782;2023-06-14T02:12:25;4.40;;;2.92;;
21657;SDS011;10990;48.174;9.782;2023-06-14T02:14:53;3.97;;;3.20;;
21657;SDS011;10990;48.174;9.782;2023-06-14T02:17:22;6.80;;;3.65;;
21657;SDS011;10990;48.174;9.782;2023-06-14T02:19:49;6.78;;;3.40;;
21657;SDS011;10990;48.174;9.782;2023-06-14T02:22:16;4.55;;;3.30;;
21657;SDS011;10990;48.174;9.782;2023-06-14T02:24:43;7.68;;;3.85;;
21657;SDS011;10990;48.174;9.782;2023-06-14T02:27:10;5.35;;;3.55;;
21657;SDS011;10990;48.174;9.782;2023-06-14T02:29:37;4.75;;;3.20;;
21657;SDS011;10990;48.174;9.782;2023-06-14T02:32:05;5.38;;;3.10;;
21657;SDS011;10990;48.174;9.782;2023-06-14T02:34:33;4.90;;;3.50;;
21657;SDS011;10990;48.174;9.782;2023-06-14T02:37:00;5.38;;;3.58;;
21657;SDS011;10990;48.174;9.782;2023-06-14T02:39:28;4.35;;;3.60;;
21657;SDS011;10990;48.174;9.782;2023-06-14T02:41:54;4.60;;;3.65;;
21657;SDS011;10990;48.174;9.782;2023-06-14T02:44:23;5.53;;;3.40;;
21657;SDS011;10990;48.174;9.782;2023-06-14T02:46:52;6.47;;;3.55;;
21657;SDS011;10990;48.174;9.782;2023-06-14T02:49:20;6.63;;;3.60;;
21657;SDS011;10990;48.174;9.782;2023-06-14T02:51:47;5.15;;;3.47;;
21657;SDS011;10990;48.174;9.782;2023-06-14T02:54:14;5.80;;;3.78;;
21657;SDS011;10990;48.174;9.782;2023-06-14T02:56:41;4.50;;;3.40;;
21657;SDS011;10990;48.174;9.782;2023-06-14T02:59:08;6.78;;;3.45;;
21657;SDS011;10990;48.174;9.782;2023-06-14T03:01:36;4.93;;;3.33;;
21657;SDS011;10990;48.174;9.782;2023-06-14T03:04:07;4.70;;;3.40;;
21657;SDS011;10990;48.174;9.782;2023-06-14T03:06:38;5.80;;;3.67;;
21657;SDS011;10990;48.174;9.782;2023-06-14T03:09:06;5.00;;;3.50;;
21657;SDS011;10990;48.174;9.782;2023-06-14T03:11:36;4.88;;;3.17;;
21657;SDS011;10990;48.174;9.782;2023-06-14T03:14:03;5.72;;;3.55;;
21657;SDS011;10990;48.174;9.782;2023-06-14T03:16:32;4.57;;;3.38;;
21657;SDS011;10990;48.174;9.782;2023-06-14T03:18:59;6.10;;;3.67;;
21657;SDS011;10990;48.174;9.782;2023-06-14T03:21:29;5.82;;;3.53;;
21657;SDS011;10990;48.174;9.782;2023-06-14T03:24:00;5.77;;;3.50;;
21657;SDS011;10990;48.174;9.782;2023-06-14T03:26:28;5.35;;;3.42;;
21657;SDS011;10990;48.174;9.782;2023-06-14T03:28:57;4.70;;;3.40;;
21657;SDS011;10990;48.174;9.782;2023-06-14T03:31:24;5.63;;;3.33;;
21657;SDS011;10990;48.174;9.782;2023-06-14T03:33:51;5.43;;;3.50;;
21657;SDS011;10990;48.174;9.782;2023-06-14T03:36:19;7.00;;;3.47;;
21657;SDS011;10990;48.174;9.782;2023-06-14T03:38:46;5.07;;;3.75;;
21657;SDS011;10990;48.174;9.782;2023-06-14T03:41:15;5.22;;;3.50;;
21657;SDS011;10990;48.174;9.782;2023-06-14T03:43:42;5.95;;;3.55;;
21657;SDS011;10990;48.174;9.782;2023-06-14T03:46:09;4.97;;;3.42;;
21657;SDS011;10990;48.174;9.782;2023-06-14T03:48:36;6.38;;;3.85;;
21657;SDS011;10990;48.174;9.782;2023-06-14T03:51:03;5.25;;;3.70;;
21657;SDS011;10990;48.174;9.782;2023-06-14T03:53:30;5.03;;;3.50;;
21657;SDS011;10990;48.174;9.782;2023-06-14T03:55:58;4.97;;;3.60;;
21657;SDS011;10990;48.174;9.782;2023-06-14T03:58:33;6.72;;;3.90;;
21657;SDS011;10990;48.174;9.782;2023-06-14T04:01:00;6.82;;;3.67;;
21657;SDS011;10990;48.174;9.782;2023-06-14T04:03:29;5.63;;;3.73;;
21657;SDS011;10990;48.174;9.782;2023-06-14T04:05:58;5.53;;;3.60;;
21657;SDS011;10990;48.174;9.782;2023-06-14T04:08:26;5.70;;;3.65;;
21657;SDS011;10990;48.174;9.782;2023-06-14T04:10:52;4.95;;;3.38;;
21657;SDS011;10990;48.174;9.782;2023-06-14T04:13:19;6.37;;;3.50;;
21657;SDS011;10990;48.174;9.782;2023-06-14T04:15:48;6.15;;;3.60;;
21657;SDS011;10990;48.174;9.782;2023-06-14T04:18:21;5.00;;;3.20;;
21657;SDS011;10990;48.174;9.782;2023-06-14T04:20:48;7.93;;;3.67;;
21657;SDS011;10990;48.174;9.782;2023-06-14T04:23:16;6.03;;;3.57;;
21657;SDS011;10990;48.174;9.782;2023-06-14T04:25:44;6.55;;;3.75;;
21657;SDS011;10990;48.174;9.782;2023-06-14T04:28:12;8.18;;;3.63;;
21657;SDS011;10990;48.174;9.782;2023-06-14T04:30:41;7.05;;;3.65;;
21657;SDS011;10990;48.174;9.782;2023-06-14T04:33:09;12.93;;;4.55;;
21657;SDS011;10990;48.174;9.782;2023-06-14T04:35:36;15.90;;;4.28;;
21657;SDS011;10990;48.174;9.782;2023-06-14T04:38:04;9.23;;;4.40;;
21657;SDS011;10990;48.174;9.782;2023-06-14T04:40:34;9.75;;;4.00;;
21657;SDS011;10990;48.174;9.782;2023-06-14T04:43:08;9.82;;;4.50;;
21657;SDS011;10990;48.174;9.782;2023-06-14T04:45:38;10.02;;;4.05;;
21657;SDS011;10990;48.174;9.782;2023-06-14T04:48:06;10.45;;;4.30;;
21657;SDS011;10990;48.174;9.782;2023-06-14T04:50:35;10.43;;;4.10;;
21657;SDS011;10990;48.174;9.782;2023-06-14T04:53:01;9.77;;;4.45;;
21657;SDS011;10990;48.174;9.782;2023-06-14T04:55:29;9.30;;;4.60;;
21657;SDS011;10990;48.174;9.782;2023-06-14T04:57:56;10.35;;;4.30;;
21657;SDS011;10990;48.174;9.782;2023-06-14T05:00:23;11.60;;;4.22;;
21657;SDS011;10990;48.174;9.782;2023-06-14T05:02:49;8.07;;;3.92;;
21657;SDS011;10990;48.174;9.782;2023-06-14T05:05:18;9.13;;;4.13;;
21657;SDS011;10990;48.174;9.782;2023-06-14T05:07:47;9.02;;;4.30;;
21657;SDS011;10990;48.174;9.782;2023-06-14T05:10:13;8.55;;;4.10;;
21657;SDS011;10990;48.174;9.782;2023-06-14T05:12:41;9.45;;;4.20;;
21657;SDS011;10990;48.174;9.782;2023-06-14T05:15:09;5.30;;;3.63;;
21657;SDS011;10990;48.174;9.782;2023-06-14T05:17:37;6.28;;;4.13;;
21657;SDS011;10990;48.174;9.782;2023-06-14T05:20:06;6.82;;;3.75;;
21657;SDS011;10990;48.174;9.782;2023-06-14T05:22:35;5.63;;;3.83;;
21657;SDS011;10990;48.174;9.782;2023-06-14T05:25:03;6.50;;;4.13;;
21657;SDS011;10990;48.174;9.782;2023-06-14T05:27:31;4.90;;;3.60;;
21657;SDS011;10990;48.174;9.782;2023-06-14T05:29:59;6.18;;;4.35;;
21657;SDS011;10990;48.174;9.782;2023-06-14T05:32:26;6.88;;;4.35;;
21657;SDS011;10990;48.174;9.782;2023-06-14T05:34:52;5.97;;;3.90;;
21657;SDS011;10990;48.174;9.782;2023-06-14T05:37:19;6.43;;;4.18;;
21657;SDS011;10990;48.174;9.782;2023-06-14T05:39:46;5.80;;;4.35;;
21657;SDS011;10990;48.174;9.782;2023-06-14T05:42:14;6.63;;;4.20;;
21657;SDS011;10990;48.174;9.782;2023-06-14T05:44:40;7.03;;;4.15;;
21657;SDS011;10990;48.174;9.782;2023-06-14T05:47:07;8.40;;;4.20;;
21657;SDS011;10990;48.174;9.782;2023-06-14T05:49:34;6.28;;;4.47;;
21657;SDS011;10990;48.174;9.782;2023-06-14T05:52:00;7.03;;;4.47;;
21657;SDS011;10990;48.174;9.782;2023-06-14T05:54:27;5.40;;;4.25;;
21657;SDS011;10990;48.174;9.782;2023-06-14T05:56:54;7.35;;;4.20;;
21657;SDS011;10990;48.174;9.782;2023-06-14T05:59:22;6.35;;;4.38;;
21657;SDS011;10990;48.174;9.782;2023-06-14T06:01:48;10.55;;;4.85;;
21657;SDS011;10990;48.174;9.782;2023-06-14T06:04:15;4.57;;;3.80;;
21657;SDS011;10990;48.174;9.782;2023-06-14T06:06:42;5.88;;;4.50;;
21657;SDS011;10990;48.174;9.782;2023-06-14T06:09:08;7.95;;;4.28;;
21657;SDS011;10990;48.174;9.782;2023-06-14T06:11:35;5.63;;;4.53;;
21657;SDS011;10990;48.174;9.782;2023-06-14T06:14:02;5.82;;;4.53;;
21657;SDS011;10990;48.174;9.782;2023-06-14T06:16:30;9.02;;;4.45;;
21657;SDS011;10990;48.174;9.782;2023-06-14T06:18:56;7.20;;;4.85;;
21657;SDS011;10990;48.174;9.782;2023-06-14T06:21:23;7.57;;;4.40;;
21657;SDS011;10990;48.174;9.782;2023-06-14T06:23:49;6.38;;;4.75;;
21657;SDS011;10990;48.174;9.782;2023-06-14T06:26:16;7.43;;;4.97;;
21657;SDS011;10990;48.174;9.782;2023-06-14T06:28:43;9.75;;;4.75;;
21657;SDS011;10990;48.174;9.782;2023-06-14T06:31:09;7.90;;;4.65;;
21657;SDS011;10990;48.174;9.782;2023-06-14T06:33:37;8.00;;;4.40;;
21657;SDS011;10990;48.174;9.782;2023-06-14T06:36:04;8.73;;;5.35;;
21657;SDS011;10990;48.174;9.782;2023-06-14T06:38:31;7.85;;;4.25;;
21657;SDS011;10990;48.174;9.782;2023-06-14T06:40:58;8.60;;;4.75;;
21657;SDS011;10990;48.174;9.782;2023-06-14T06:43:24;7.15;;;4.47;;
21657;SDS011;10990;48.174;9.782;2023-06-14T06:45:52;7.70;;;4.95;;
21657;SDS011;10990;48.174;9.782;2023-06-14T06:48:18;8.60;;;4.95;;
21657;SDS011;10990;48.174;9.782;2023-06-14T06:50:47;7.05;;;4.57;;
21657;SDS011;10990;48.174;9.782;2023-06-14T06:53:13;7.50;;;4.45;;
21657;SDS011;10990;48.174;9.782;2023-06-14T06:55:40;11.05;;;4.68;;
21657;SDS011;10990;48.174;9.782;2023-06-14T06:58:07;8.82;;;4.10;;
21657;SDS011;10990;48.174;9.782;2023-06-14T07:00:33;8.50;;;5.13;;
21657;SDS011;10990;48.174;9.782;2023-06-14T07:03:00;10.23;;;5.25;;
21657;SDS011;10990;48.174;9.782;2023-06-14T07:05:29;6.40;;;5.00;;
21657;SDS011;10990;48.174;9.782;2023-06-14T07:07:58;6.38;;;5.13;;
21657;SDS011;10990;48.174;9.782;2023-06-14T07:10:25;7.93;;;4.68;;
21657;SDS011;10990;48.174;9.782;2023-06-14T07:12:51;5.65;;;4.97;;
21657;SDS011;10990;48.174;9.782;2023-06-14T07:15:18;8.27;;;4.93;;
21657;SDS011;10990;48.174;9.782;2023-06-14T07:17:45;6.95;;;4.47;;
21657;SDS011;10990;48.174;9.782;2023-06-14T07:20:12;8.57;;;4.57;;
21657;SDS011;10990;48.174;9.782;2023-06-14T07:22:40;7.15;;;4.82;;
21657;SDS011;10990;48.174;9.782;2023-06-14T07:25:09;8.20;;;4.70;;
21657;SDS011;10990;48.174;9.782;2023-06-14T07:27:39;7.97;;;5.10;;
21657;SDS011;10990;48.174;9.782;2023-06-14T07:30:06;6.82;;;5.00;;
21657;SDS011;10990;48.174;9.782;2023-06-14T07:32:33;11.43;;;5.90;;
21657;SDS011;10990;48.174;9.782;2023-06-14T07:35:00;8.73;;;5.13;;
21657;SDS011;10990;48.174;9.782;2023-06-14T07:37:28;7.15;;;4.80;;
21657;SDS011;10990;48.174;9.782;2023-06-14T07:39:54;7.18;;;5.38;;
21657;SDS011;10990;48.174;9.782;2023-06-14T07:42:22;6.93;;;4.53;;
21657;SDS011;10990;48.174;9.782;2023-06-14T07:44:49;7.10;;;4.85;;
21657;SDS011;10990;48.174;9.782;2023-06-14T07:47:17;7.25;;;4.57;;
21657;SDS011;10990;48.174;9.782;2023-06-14T07:49:44;7.57;;;4.85;;
21657;SDS011;10990;48.174;9.782;2023-06-14T07:52:10;6.50;;;4.70;;
21657;SDS011;10990;48.174;9.782;2023-06-14T07:54:38;6.55;;;4.35;;
21657;SDS011;10990;48.174;9.782;2023-06-14T07:57:06;6.75;;;4.15;;
21657;SDS011;10990;48.174;9.782;2023-06-14T07:59:35;6.65;;;4.35;;
21657;SDS011;10990;48.174;9.782;2023-06-14T08:02:02;5.28;;;3.80;;
21657;SDS011;10990;48.174;9.782;2023-06-14T08:04:28;7.50;;;4.20;;
21657;SDS011;10990;48.174;9.782;2023-06-14T08:06:56;8.85;;;4.25;;
21657;SDS011;10990;48.174;9.782;2023-06-14T08:09:22;5.80;;;4.35;;
21657;SDS011;10990;48.174;9.782;2023-06-14T08:11:50;6.32;;;4.32;;
21657;SDS011;10990;48.174;9.782;2023-06-14T08:14:17;7.22;;;4.63;;
21657;SDS011;10990;48.174;9.782;2023-06-14T08:16:45;8.88;;;4.47;;
21657;SDS011;10990;48.174;9.782;2023-06-14T08:19:11;9.20;;;4.60;;
21657;SDS011;10990;48.174;9.782;2023-06-14T08:21:38;4.70;;;3.72;;
21657;SDS011;10990;48.174;9.782;2023-06-14T08:24:05;8.10;;;4.20;;
21657;SDS011;10990;48.174;9.782;2023-06-14T08:26:32;5.68;;;3.58;;
21657;SDS011;10990;48.174;9.782;2023-06-14T08:28:59;4.93;;;4.10;;
21657;SDS011;10990;48.174;9.782;2023-06-14T08:31:26;6.78;;;4.00;;
21657;SDS011;10990;48.174;9.782;2023-06-14T08:33:54;5.53;;;3.90;;
21657;SDS011;10990;48.174;9.782;2023-06-14T08:36:21;10.63;;;4.60;;
21657;SDS011;10990;48.174;9.782;2023-06-14T08:38:48;5.03;;;4.00;;
21657;SDS011;10990;48.174;9.782;2023-06-14T08:41:16;6.55;;;4.00;;
21657;SDS011;10990;48.174;9.782;2023-06-14T08:43:47;5.88;;;3.90;;
21657;SDS011;10990;48.174;9.782;2023-06-14T08:46:14;5.45;;;3.97;;
21657;SDS011;10990;48.174;9.782;2023-06-14T08:48:45;5.50;;;3.95;;
21657;SDS011;10990;48.174;9.782;2023-06-14T08:51:14;4.93;;;3.50;;
21657;SDS011;10990;48.174;9.782;2023-06-14T08:53:45;5.68;;;3.72;;
21657;SDS011;10990;48.174;9.782;2023-06-14T08:56:16;5.47;;;4.03;;
21657;SDS011;10990;48.174;9.782;2023-06-14T08:58:43;7.10;;;4.13;;
21657;SDS011;10990;48.174;9.782;2023-06-14T09:01:11;8.23;;;4.03;;
21657;SDS011;10990;48.174;9.782;2023-06-14T09:03:39;6.05;;;3.75;;
21657;SDS011;10990;48.174;9.782;2023-06-14T09:06:06;5.38;;;3.90;;
21657;SDS011;10990;48.174;9.782;2023-06-14T09:08:40;6.78;;;4.00;;
21657;SDS011;10990;48.174;9.782;2023-06-14T09:11:10;5.43;;;3.90;;
21657;SDS011;10990;48.174;9.782;2023-06-14T09:13:37;7.97;;;3.90;;
21657;SDS011;10990;48.174;9.782;2023-06-14T09:16:05;5.30;;;4.13;;
21657;SDS011;10990;48.174;9.782;2023-06-14T09:18:35;9.75;;;3.90;;
21657;SDS011;10990;48.174;9.782;2023-06-14T09:21:02;6.97;;;3.72;;
21657;SDS011;10990;48.174;9.782;2023-06-14T09:23:29;4.40;;;3.65;;
21657;SDS011;10990;48.174;9.782;2023-06-14T09:26:01;5.95;;;3.78;;
21657;SDS011;10990;48.174;9.782;2023-06-14T09:28:27;8.65;;;3.70;;
21657;SDS011;10990;48.174;9.782;2023-06-14T09:30:54;6.05;;;4.00;;
21657;SDS011;10990;48.174;9.782;2023-06-14T09:33:21;5.28;;;4.15;;
21657;SDS011;10990;48.174;9.782;2023-06-14T09:35:50;5.72;;;3.70;;
21657;SDS011;10990;48.174;9.782;2023-06-14T09:38:18;4.32;;;3.70;;
21657;SDS011;10990;48.174;9.782;2023-06-14T09:40:44;8.25;;;4.25;;
21657;SDS011;10990;48.174;9.782;2023-06-14T09:43:12;4.32;;;3.78;;
21657;SDS011;10990;48.174;9.782;2023-06-14T09:45:39;5.20;;;3.70;;
21657;SDS011;10990;48.174;9.782;2023-06-14T09:48:06;5.80;;;3.92;;
21657;SDS011;10990;48.174;9.782;2023-06-14T09:50:33;4.15;;;3.00;;
21657;SDS011;10990;48.174;9.782;2023-06-14T09:53:02;4.40;;;3.47;;
21657;SDS011;10990;48.174;9.782;2023-06-14T09:55:31;4.35;;;3.95;;
21657;SDS011;10990;48.174;9.782;2023-06-14T09:58:01;7.07;;;4.00;;
21657;SDS011;10990;48.174;9.782;2023-06-14T10:00:32;4.82;;;3.60;;
21657;SDS011;10990;48.174;9.782;2023-06-14T10:03:00;4.68;;;3.60;;
21657;SDS011;10990;48.174;9.782;2023-06-14T10:05:43;7.72;;;3.65;;
21657;SDS011;10990;48.174;9.782;2023-06-14T10:08:13;4.70;;;3.47;;
21657;SDS011;10990;48.174;9.782;2023-06-14T10:10:42;7.93;;;3.63;;
21657;SDS011;10990;48.174;9.782;2023-06-14T10:13:09;3.83;;;3.47;;
21657;SDS011;10990;48.174;9.782;2023-06-14T10:15:38;6.72;;;3.60;;
21657;SDS011;10990;48.174;9.782;2023-06-14T10:18:14;5.07;;;3.83;;
21657;SDS011;10990;48.174;9.782;2023-06-14T10:20:51;7.40;;;4.10;;
21657;SDS011;10990;48.174;9.782;2023-06-14T10:23:24;5.63;;;3.60;;
21657;SDS011;10990;48.174;9.782;2023-06-14T10:25:54;5.80;;;4.20;;
21657;SDS011;10990;48.174;9.782;2023-06-14T10:28:25;3.40;;;3.08;;
21657;SDS011;10990;48.174;9.782;2023-06-14T10:33:39;4.15;;;3.58;;
21657;SDS011;10990;48.174;9.782;2023-06-14T10:36:26;5.68;;;3.72;;
21657;SDS011;10990;48.174;9.782;2023-06-14T10:39:04;6.43;;;3.53;;
21657;SDS011;10990;48.174;9.782;2023-06-14T10:41:34;7.45;;;3.60;;
21657;SDS011;10990;48.174;9.782;2023-06-14T10:46:58;5.47;;;3.58;;
21657;SDS011;10990;48.174;9.782;2023-06-14T10:49:39;4.05;;;3.53;;
21657;SDS011;10990;48.174;9.782;2023-06-14T10:52:12;5.63;;;3.53;;
21657;SDS011;10990;48.174;9.782;2023-06-14T10:54:59;5.30;;;3.40;;
21657;SDS011;10990;48.174;9.782;2023-06-14T10:57:31;3.72;;;3.30;;
21657;SDS011;10990;48.174;9.782;2023-06-14T10:59:59;6.90;;;3.83;;
21657;SDS011;10990;48.174;9.782;2023-06-14T11:02:39;5.03;;;3.83;;
21657;SDS011;10990;48.174;9.782;2023-06-14T11:05:27;5.68;;;3.55;;
21657;SDS011;10990;48.174;9.782;2023-06-14T11:08:14;4.75;;;3.25;;
21657;SDS011;10990;48.174;9.782;2023-06-14T11:10:52;5.05;;;3.63;;
21657;SDS011;10990;48.174;9.782;2023-06-14T11:13:24;6.53;;;3.70;;
21657;SDS011;10990;48.174;9.782;2023-06-14T11:15:51;6.70;;;3.95;;
21657;SDS011;10990;48.174;9.782;2023-06-14T11:18:21;4.93;;;3.92;;
21657;SDS011;10990;48.174;9.782;2023-06-14T11:20:49;6.68;;;3.78;;
21657;SDS011;10990;48.174;9.782;2023-06-14T11:23:17;3.47;;;3.17;;
21657;SDS011;10990;48.174;9.782;2023-06-14T11:25:48;4.38;;;3.70;;
21657;SDS011;10990;48.174;9.782;2023-06-14T11:28:16;8.40;;;3.38;;
21657;SDS011;10990;48.174;9.782;2023-06-14T11:30:44;16.45;;;3.40;;
21657;SDS011;10990;48.174;9.782;2023-06-14T11:33:11;6.50;;;3.90;;
21657;SDS011;10990;48.174;9.782;2023-06-14T11:35:43;4.50;;;3.58;;
21657;SDS011;10990;48.174;9.782;2023-06-14T11:38:10;6.30;;;3.38;;
21657;SDS011;10990;48.174;9.782;2023-06-14T11:40:38;6.18;;;3.60;;
21657;SDS011;10990;48.174;9.782;2023-06-14T11:43:05;7.68;;;3.72;;
21657;SDS011;10990;48.174;9.782;2023-06-14T11:45:32;5.15;;;3.60;;
21657;SDS011;10990;48.174;9.782;2023-06-14T11:47:58;7.40;;;3.70;;
21657;SDS011;10990;48.174;9.782;2023-06-14T11:50:25;3.92;;;3.45;;
21657;SDS011;10990;48.174;9.782;2023-06-14T11:52:53;5.38;;;3.60;;
21657;SDS011;10990;48.174;9.782;2023-06-14T11:55:21;4.18;;;3.33;;
21657;SDS011;10990;48.174;9.782;2023-06-14T11:57:49;3.80;;;3.35;;
21657;SDS011;10990;48.174;9.782;2023-06-14T12:00:16;6.95;;;3.47;;
21657;SDS011;10990;48.174;9.782;2023-06-14T12:02:51;5.95;;;3.45;;
21657;SDS011;10990;48.174;9.782;2023-06-14T12:05:20;8.57;;;3.53;;
21657;SDS011;10990;48.174;9.782;2023-06-14T12:07:47;4.10;;;3.70;;
21657;SDS011;10990;48.174;9.782;2023-06-14T12:10:13;5.45;;;3.20;;
21657;SDS011;10990;48.174;9.782;2023-06-14T12:12:40;5.53;;;3.42;;
21657;SDS011;10990;48.174;9.782;2023-06-14T12:15:09;6.60;;;3.30;;
21657;SDS011;10990;48.174;9.782;2023-06-14T12:17:37;4.95;;;3.60;;
21657;SDS011;10990;48.174;9.782;2023-06-14T12:20:07;6.03;;;3.47;;
21657;SDS011;10990;48.174;9.782;2023-06-14T12:22:39;4.97;;;3.10;;
21657;SDS011;10990;48.174;9.782;2023-06-14T12:25:06;5.13;;;3.50;;
21657;SDS011;10990;48.174;9.782;2023-06-14T12:27:34;6.55;;;3.47;;
21657;SDS011;10990;48.174;9.782;2023-06-14T12:30:01;5.53;;;3.13;;
21657;SDS011;10990;48.174;9.782;2023-06-14T12:32:31;3.88;;;3.10;;
21657;SDS011;10990;48.174;9.782;2023-06-14T12:34:58;7.03;;;3.65;;
21657;SDS011;10990;48.174;9.782;2023-06-14T12:37:25;4.95;;;3.22;;
21657;SDS011;10990;48.174;9.782;2023-06-14T12:39:51;6.00;;;3.53;;
21657;SDS011;10990;48.174;9.782;2023-06-14T12:42:18;3.72;;;3.38;;
21657;SDS011;10990;48.174;9.782;2023-06-14T12:44:45;6.30;;;3.60;;
21657;SDS011;10990;48.174;9.782;2023-06-14T12:47:11;5.50;;;3.17;;
21657;SDS011;10990;48.174;9.782;2023-06-14T12:49:40;5.38;;;3.15;;
21657;SDS011;10990;48.174;9.782;2023-06-14T12:52:07;7.35;;;3.55;;
21657;SDS011;10990;48.174;9.782;2023-06-14T12:54:35;6.25;;;3.45;;
21657;SDS011;10990;48.174;9.782;2023-06-14T12:57:01;3.47;;;3.10;;
21657;SDS011;10990;48.174;9.782;2023-06-14T12:59:28;6.15;;;3.95;;
21657;SDS011;10990;48.174;9.782;2023-06-14T13:01:58;5.15;;;3.60;;
21657;SDS011;10990;48.174;9.782;2023-06-14T13:04:26;4.45;;;3.50;;
21657;SDS011;10990;48.174;9.782;2023-06-14T13:06:54;7.30;;;3.40;;
21657;SDS011;10990;48.174;9.782;2023-06-14T13:09:21;8.05;;;3.88;;
21657;SDS011;10990;48.174;9.782;2023-06-14T13:11:47;3.85;;;3.30;;
21657;SDS011;10990;48.174;9.782;2023-06-14T13:14:14;4.47;;;3.30;;
21657;SDS011;10990;48.174;9.782;2023-06-14T13:16:41;4.68;;;3.17;;
21657;SDS011;10990;48.174;9.782;2023-06-14T13:19:08;6.05;;;3.45;;
21657;SDS011;10990;48.174;9.782;2023-06-14T13:21:34;4.13;;;3.10;;
21657;SDS011;10990;48.174;9.782;2023-06-14T13:24:02;3.63;;;3.30;;
21657;SDS011;10990;48.174;9.782;2023-06-14T13:26:30;4.72;;;3.05;;
21657;SDS011;10990;48.174;9.782;2023-06-14T13:28:56;7.25;;;3.20;;
21657;SDS011;10990;48.174;9.782;2023-06-14T13:31:23;3.65;;;2.97;;
21657;SDS011;10990;48.174;9.782;2023-06-14T13:33:50;7.00;;;3.40;;
21657;SDS011;10990;48.174;9.782;2023-06-14T13:36:16;4.35;;;3.42;;
21657;SDS011;10990;48.174;9.782;2023-06-14T13:38:43;4.88;;;3.33;;
21657;SDS011;10990;48.174;9.782;2023-06-14T13:41:11;8.32;;;3.53;;
21657;SDS011;10990;48.174;9.782;2023-06-14T13:43:38;5.75;;;3.50;;
21657;SDS011;10990;48.174;9.782;2023-06-14T13:46:05;4.68;;;3.30;;
21657;SDS011;10990;48.174;9.782;2023-06-14T13:48:32;7.13;;;3.50;;
21657;SDS011;10990;48.174;9.782;2023-06-14T13:50:59;4.50;;;3.40;;
21657;SDS011;10990;48.174;9.782;2023-06-14T13:53:26;4.57;;;3.50;;
21657;SDS011;10990;48.174;9.782;2023-06-14T13:55:53;4.13;;;3.17;;
21657;SDS011;10990;48.174;9.782;2023-06-14T13:58:21;5.07;;;3.33;;
21657;SDS011;10990;48.174;9.782;2023-06-14T14:00:48;5.63;;;3.40;;
21657;SDS011;10990;48.174;9.782;2023-06-14T14:03:15;3.75;;;3.10;;
21657;SDS011;10990;48.174;9.782;2023-06-14T14:05:42;6.10;;;2.90;;
21657;SDS011;10990;48.174;9.782;2023-06-14T14:08:09;6.32;;;3.47;;
21657;SDS011;10990;48.174;9.782;2023-06-14T14:10:35;4.85;;;3.40;;
21657;SDS011;10990;48.174;9.782;2023-06-14T14:13:02;6.18;;;3.28;;
21657;SDS011;10990;48.174;9.782;2023-06-14T14:15:30;6.43;;;2.80;;
21657;SDS011;10990;48.174;9.782;2023-06-14T14:17:59;6.20;;;3.67;;
21657;SDS011;10990;48.174;9.782;2023-06-14T14:20:29;4.47;;;3.70;;
21657;SDS011;10990;48.174;9.782;2023-06-14T14:22:56;4.20;;;3.80;;
21657;SDS011;10990;48.174;9.782;2023-06-14T14:25:23;3.95;;;3.20;;
21657;SDS011;10990;48.174;9.782;2023-06-14T14:27:49;4.55;;;3.40;;
21657;SDS011;10990;48.174;9.782;2023-06-14T14:30:16;5.68;;;3.40;;
21657;SDS011;10990;48.174;9.782;2023-06-14T14:32:47;5.43;;;3.40;;
21657;SDS011;10990;48.174;9.782;2023-06-14T14:35:13;6.57;;;3.42;;
21657;SDS011;10990;48.174;9.782;2023-06-14T14:37:40;4.95;;;3.20;;
21657;SDS011;10990;48.174;9.782;2023-06-14T14:40:07;4.97;;;3.50;;
21657;SDS011;10990;48.174;9.782;2023-06-14T14:42:35;4.10;;;3.00;;
21657;SDS011;10990;48.174;9.782;2023-06-14T14:45:02;4.10;;;3.08;;
21657;SDS011;10990;48.174;9.782;2023-06-14T14:47:29;5.93;;;3.20;;
21657;SDS011;10990;48.174;9.782;2023-06-14T14:49:56;3.83;;;3.30;;
21657;SDS011;10990;48.174;9.782;2023-06-14T14:52:23;4.22;;;3.30;;
21657;SDS011;10990;48.174;9.782;2023-06-14T14:54:51;5.88;;;3.00;;
21657;SDS011;10990;48.174;9.782;2023-06-14T14:57:19;4.45;;;3.47;;
21657;SDS011;10990;48.174;9.782;2023-06-14T14:59:45;4.93;;;2.90;;